Кабанск

Карта отелей и гостиниц, располагающихся рядом с аэропортом Кабанск :

Кабанск Бурятия 52° 2' 3.66" N, 106° 41' 19.2012" E
Код аэродрома ИКАО
UIUX
Код аэродрома RU
УИУЬ
Координаты
N52.03435° E106.68867°
Превышение над уровнем моря
470
Основная полоса
11/29
Курс магнитный
110,9/290,9
Длина основной ВПП
735
Ширина основной ВПП
60
Покрытие основной ВПП
Нетвёрдое (грунт)
Освещение ВПП
Нет
Тип: 
Аэродром
Класс аэродрома: 
Принадлежность: 
ГА
Статус: 
Действующий
Сайт: 
E-mail аэродрома: 
Страна: 
Россия
Регион: 
Бурятия
Город: 
Дополнительная информация: 
Горный. Оператор: нет данных.

Найти трансфер

С помощью этой формы Вы можете найти трансфер из аэропорта Кабанск в город, аэропорт или вокзал:

Карта места

Javascript is required to view this map.

Погода в аэропортах:

Авиационная погода в Ровно

Регион: 
Погода METAR: 
UKLR 281100Z 10003MPS 5000 -RA OVC026 03/03 Q0998 NOSIG
Время наблюдения
2021-11-28T11:00:00Z
Температура C
3.0
Точка росы
3.0
Направление ветра
100
Скорость ветра (узлы)
6
Метео видимость
3.11
Явления погоды
-RA
Условия полета
MVFR
Аэропорт подробнее: 

Авиационная погода в Алматы

Регион: 
Погода METAR: 
UAAA 281100Z 25003MPS 5000 FU FEW200 M01/M06 Q1026 NOSIG
Время наблюдения
2021-11-28T11:00:00Z
Температура C
-1.0
Точка росы
-6.0
Направление ветра
250
Скорость ветра (узлы)
6
Метео видимость
3.11
Явления погоды
FU
Условия полета
MVFR
Аэропорт подробнее: 

Авиационная погода в Москва - Внуково

Погода METAR: 
UUWW 281300Z 22006MPS 9999 -RA BKN007 OVC022 02/01 Q1005 R24/290050 TEMPO BKN004
Время наблюдения
2021-11-28T13:00:00Z
Температура C
2.0
Точка росы
1.0
Направление ветра
220
Скорость ветра (узлы)
12
Метео видимость
6.21
Явления погоды
-RA
Условия полета
IFR
Аэропорт подробнее: 

Авиационная погода в Курске

Погода METAR: 
UUOK 281300Z 18002MPS 160V240 5000 BR OVC011 07/06 Q1008 R30/290050 TEMPO 1500 BR RMK QFE737/0983
Время наблюдения
2021-11-28T13:00:00Z
Температура C
7.0
Точка росы
6.0
Направление ветра
180
Скорость ветра (узлы)
4
Метео видимость
3.11
Явления погоды
BR
Условия полета
MVFR
Аэропорт подробнее: